createdAt,value
2019-06-07T00:01:20.985Z,11.70
2019-06-07T00:03:46.352Z,11.60
2019-06-07T00:06:19.620Z,11.70
2019-06-07T00:11:09.920Z,11.60
2019-06-07T00:13:34.316Z,11.50
2019-06-07T00:16:01.292Z,11.60
2019-06-07T00:18:28.263Z,11.40
2019-06-07T00:20:55.184Z,11.50
2019-06-07T00:25:49.171Z,11.50
2019-06-07T00:33:13.571Z,11.50
2019-06-07T00:35:37.221Z,11.20
2019-06-07T00:38:04.200Z,11.40
2019-06-07T00:42:59.547Z,11.30
2019-06-07T00:45:26.509Z,11.20
2019-06-07T00:47:53.473Z,11.30
2019-06-07T00:50:23.483Z,11.40
2019-06-07T00:55:17.179Z,11.40
2019-06-07T01:00:08.382Z,11.30
2019-06-07T01:02:35.316Z,11.30
2019-06-07T01:05:02.433Z,11.30
2019-06-07T01:07:29.372Z,11.10
2019-06-07T01:09:56.318Z,11.10
2019-06-07T01:12:24.586Z,9.50
2019-06-07T01:14:50.343Z,11.20
2019-06-07T01:17:36.281Z,11.20
2019-06-07T01:19:49.688Z,11.50
2019-06-07T01:22:18.353Z,11.20
2019-06-07T01:24:43.570Z,11.00
2019-06-07T01:27:10.548Z,11.10
2019-06-07T01:29:37.492Z,11.00
2019-06-07T01:32:04.456Z,11.00
2019-06-07T01:34:31.423Z,8.30
2019-06-07T01:36:58.346Z,11.10
2019-06-07T01:39:29.732Z,11.10
2019-06-07T01:41:54.287Z,11.00
2019-06-07T01:44:24.165Z,11.00
2019-06-07T01:46:48.745Z,10.90
2019-06-07T01:49:15.710Z,11.00
2019-06-07T01:51:42.649Z,11.00
2019-06-07T01:56:36.563Z,11.20
2019-06-07T01:59:03.546Z,11.10
2019-06-07T02:01:35.194Z,11.10
2019-06-07T02:03:57.472Z,11.10
2019-06-07T02:06:27.925Z,11.10
2019-06-07T02:08:51.385Z,11.20
2019-06-07T02:11:20.906Z,11.20
2019-06-07T02:16:12.316Z,11.20
2019-06-07T02:19:00.656Z,11.20
2019-06-07T02:21:06.253Z,11.30
2019-06-07T02:23:33.780Z,11.30
2019-06-07T02:26:00.205Z,11.20
2019-06-07T02:28:36.961Z,11.20
2019-06-07T02:30:59.807Z,11.30
2019-06-07T02:33:25.350Z,11.20
2019-06-07T02:38:15.932Z,11.30
2019-06-07T02:40:42.895Z,11.20
2019-06-07T02:43:10.201Z,11.20
2019-06-07T02:45:43.152Z,11.30
2019-06-07T02:48:04.173Z,11.30
2019-06-07T02:50:35.442Z,11.20
2019-06-07T02:52:58.092Z,11.10
2019-06-07T02:55:28.895Z,11.10
2019-06-07T02:57:51.996Z,11.10
2019-06-07T03:00:55.410Z,11.10
2019-06-07T03:03:06.276Z,11.20
2019-06-07T03:05:36.282Z,11.00
2019-06-07T03:08:00.312Z,11.20
2019-06-07T03:10:28.573Z,10.00
2019-06-07T03:12:54.236Z,11.30
2019-06-07T03:15:35.418Z,11.10
2019-06-07T03:17:56.455Z,11.20
2019-06-07T03:20:23.489Z,11.20
2019-06-07T03:22:50.525Z,11.20
2019-06-07T03:25:17.479Z,11.10
2019-06-07T03:27:50.061Z,11.20
2019-06-07T03:30:36.119Z,11.40
2019-06-07T03:32:45.772Z,11.40
2019-06-07T03:35:05.333Z,11.40
2019-06-07T03:37:37.642Z,11.30
2019-06-07T03:39:59.195Z,11.30
2019-06-07T03:42:26.653Z,11.20
2019-06-07T03:44:54.620Z,11.20
2019-06-07T03:47:21.646Z,11.20
2019-06-07T03:49:48.577Z,11.30
2019-06-07T03:52:15.524Z,11.30
2019-06-07T03:54:42.627Z,11.20
2019-06-07T03:57:09.593Z,11.20
2019-06-07T03:59:40.857Z,11.30
2019-06-07T04:02:03.492Z,11.30
2019-06-07T04:04:32.281Z,11.20
2019-06-07T04:06:57.411Z,11.20
2019-06-07T04:09:24.384Z,11.30
2019-06-07T04:11:51.335Z,11.40
2019-06-07T04:14:18.318Z,11.40
2019-06-07T04:16:45.268Z,11.40
2019-06-07T04:19:12.227Z,11.50
2019-06-07T04:21:42.537Z,11.50
2019-06-07T04:31:28.267Z,11.40
2019-06-07T04:33:54.136Z,11.40
2019-06-07T04:38:48.103Z,11.50
2019-06-07T04:41:15.293Z,11.40
2019-06-07T04:43:42.822Z,11.30
2019-06-07T04:51:04.998Z,11.40
2019-06-07T04:58:25.840Z,11.70
2019-06-07T05:00:59.274Z,11.80
2019-06-07T05:03:19.749Z,11.80
2019-06-07T05:08:27.564Z,12.70
2019-06-07T05:10:43.675Z,12.20
2019-06-07T05:13:07.599Z,12.20
2019-06-07T05:15:35.249Z,12.40
2019-06-07T05:18:01.557Z,12.70
2019-06-07T05:20:29.421Z,12.70
2019-06-07T05:22:55.472Z,12.90
2019-06-07T05:25:22.465Z,12.90
2019-06-07T05:27:49.432Z,12.90
2019-06-07T05:32:57.282Z,13.20
2019-06-07T05:35:24.255Z,13.20
2019-06-07T05:37:51.184Z,13.50
2019-06-07T05:40:21.399Z,13.50
2019-06-07T05:42:47.097Z,13.70
2019-06-07T05:45:13.980Z,13.80
2019-06-07T05:47:50.073Z,13.90
2019-06-07T05:50:38.092Z,14.10
2019-06-07T05:52:39.782Z,14.20
2019-06-07T05:55:03.202Z,14.30
2019-06-07T05:57:30.236Z,14.30
2019-06-07T05:59:57.281Z,14.30
2019-06-07T06:02:25.037Z,12.10
2019-06-07T06:04:51.199Z,14.80
2019-06-07T06:07:18.169Z,14.70
2019-06-07T06:09:46.118Z,14.80
2019-06-07T06:12:12.085Z,15.00
2019-06-07T06:14:40.965Z,15.20
2019-06-07T06:17:06.033Z,13.20
2019-06-07T06:19:32.981Z,15.30
2019-06-07T06:22:00.013Z,15.50
2019-06-07T06:24:26.991Z,15.60
2019-06-07T06:27:00.224Z,15.70
2019-06-07T06:29:20.901Z,15.90
2019-06-07T06:32:35.053Z,16.00
2019-06-07T06:34:14.947Z,16.10
2019-06-07T06:36:44.621Z,16.30
2019-06-07T06:39:08.891Z,16.30
2019-06-07T06:41:46.094Z,16.40
2019-06-07T06:44:02.841Z,16.50
2019-06-07T06:46:39.105Z,16.60
2019-06-07T06:48:57.179Z,16.70
2019-06-07T06:51:24.115Z,16.70
2019-06-07T06:53:52.515Z,16.80
2019-06-07T06:56:18.187Z,17.00
2019-06-07T06:59:35.224Z,17.00
2019-06-07T07:01:11.995Z,17.10
2019-06-07T07:06:25.197Z,17.40
2019-06-07T07:08:32.905Z,17.50
2019-06-07T07:10:59.892Z,17.50
2019-06-07T07:13:26.853Z,17.80
2019-06-07T07:15:58.051Z,17.90
2019-06-07T07:18:20.831Z,18.30
2019-06-07T07:20:50.399Z,18.20
2019-06-07T07:23:14.762Z,18.20
2019-06-07T07:25:43.515Z,18.10
2019-06-07T07:28:08.738Z,18.30
2019-06-07T07:30:41.948Z,18.50
2019-06-07T07:33:07.263Z,18.50
2019-06-07T07:35:34.230Z,18.70
2019-06-07T07:38:01.190Z,18.80
2019-06-07T07:40:57.238Z,19.00
2019-06-07T07:42:56.730Z,19.10
2019-06-07T07:45:22.041Z,19.30
2019-06-07T07:48:03.214Z,19.40
2019-06-07T07:50:16.223Z,19.60
2019-06-07T07:52:45.871Z,19.70
2019-06-07T07:55:10.232Z,19.90
2019-06-07T07:57:37.147Z,20.20
2019-06-07T08:00:48.076Z,20.20
2019-06-07T08:02:31.364Z,20.20
2019-06-07T08:05:23.239Z,20.40
2019-06-07T08:07:25.232Z,20.60
2019-06-07T08:09:59.515Z,20.80
2019-06-07T08:12:19.142Z,21.10
2019-06-07T08:14:47.807Z,21.10
2019-06-07T08:17:13.073Z,21.10
2019-06-07T08:19:40.041Z,21.30
2019-06-07T08:22:06.996Z,21.40
2019-06-07T08:24:33.982Z,21.50
2019-06-07T08:27:24.216Z,21.50
2019-06-07T08:29:43.784Z,21.50
2019-06-07T08:31:57.632Z,21.50
2019-06-07T08:34:21.771Z,21.50
2019-06-07T08:36:49.970Z,21.50
2019-06-07T08:39:15.680Z,21.70
2019-06-07T08:41:53.990Z,21.80
2019-06-07T08:44:22.850Z,21.80
2019-06-07T08:46:36.548Z,22.00
2019-06-07T08:49:04.772Z,22.20
2019-06-07T08:51:30.859Z,22.30
2019-06-07T08:54:20.756Z,22.40
2019-06-07T08:56:24.827Z,22.40
2019-06-07T08:58:54.945Z,22.50
2019-06-07T09:01:18.661Z,22.70
2019-06-07T09:03:45.640Z,22.70
2019-06-07T09:08:39.657Z,23.10
2019-06-07T09:11:11.270Z,23.10
2019-06-07T09:13:33.642Z,23.20
2019-06-07T09:16:04.951Z,23.30
2019-06-07T09:18:41.859Z,23.50
2019-06-07T09:20:55.668Z,23.50
2019-06-07T09:25:57.277Z,24.00
2019-06-07T09:28:19.808Z,24.10
2019-06-07T09:30:43.293Z,24.00
2019-06-07T09:33:10.408Z,24.00
2019-06-07T09:35:37.777Z,24.10
2019-06-07T09:38:22.964Z,24.60
2019-06-07T09:40:31.685Z,24.70
2019-06-07T09:43:47.404Z,24.70
2019-06-07T09:45:25.599Z,24.80
2019-06-07T09:47:52.633Z,24.80
2019-06-07T09:50:19.583Z,25.00
2019-06-07T09:52:58.803Z,25.10
2019-06-07T09:55:23.660Z,25.40
2019-06-07T09:57:41.919Z,25.40
2019-06-07T10:00:38.651Z,25.70
2019-06-07T10:02:39.544Z,26.00
2019-06-07T10:05:12.377Z,25.90
2019-06-07T10:07:33.454Z,25.90
2019-06-07T10:12:27.440Z,26.20
2019-06-07T10:14:54.386Z,26.30
2019-06-07T10:17:21.371Z,26.50
2019-06-07T10:19:48.358Z,26.50
2019-06-07T10:22:15.322Z,26.50
2019-06-07T10:24:42.285Z,26.60
2019-06-07T10:27:10.037Z,26.90
2019-06-07T10:29:36.196Z,27.10
2019-06-07T10:32:04.418Z,27.20
2019-06-07T10:34:30.102Z,27.40
2019-06-07T10:36:57.071Z,27.40
2019-06-07T10:39:24.017Z,27.50
2019-06-07T10:41:53.969Z,27.70
2019-06-07T10:44:17.973Z,27.80
2019-06-07T10:46:44.932Z,27.60
2019-06-07T10:49:12.266Z,27.60
2019-06-07T10:51:38.908Z,27.80
2019-06-07T10:54:23.191Z,27.90
2019-06-07T10:56:34.218Z,28.20
2019-06-07T10:59:01.181Z,28.50
2019-06-07T11:01:28.133Z,28.50
2019-06-07T11:03:55.276Z,28.70
2019-06-07T11:06:22.243Z,28.40
2019-06-07T11:08:49.614Z,28.30
2019-06-07T11:11:16.550Z,28.40
2019-06-07T11:13:43.515Z,28.50
2019-06-07T11:16:11.197Z,28.20
2019-06-07T11:18:37.528Z,28.30
2019-06-07T11:21:05.966Z,28.50
2019-06-07T11:23:31.535Z,28.60
2019-06-07T11:25:58.481Z,28.50
2019-06-07T11:28:25.430Z,28.80
2019-06-07T11:30:52.528Z,29.10
2019-06-07T11:33:19.427Z,29.10
2019-06-07T11:35:46.367Z,29.20
2019-06-07T11:38:14.567Z,29.40
2019-06-07T11:40:40.376Z,29.50
2019-06-07T11:43:08.586Z,29.40
2019-06-07T11:45:34.555Z,29.50
2019-06-07T11:48:01.500Z,29.70
2019-06-07T11:50:28.438Z,29.80
2019-06-07T11:52:55.393Z,29.40
2019-06-07T11:55:22.828Z,29.00
2019-06-07T11:57:49.788Z,29.20
2019-06-07T12:00:18.440Z,29.30
2019-06-07T12:05:14.862Z,29.40
2019-06-07T12:07:37.934Z,29.40
2019-06-07T12:10:04.992Z,29.50
2019-06-07T12:12:31.915Z,29.50
2019-06-07T12:14:58.904Z,29.40
2019-06-07T12:17:25.852Z,29.40
2019-06-07T12:19:52.801Z,29.20
2019-06-07T12:22:20.118Z,29.40
2019-06-07T12:24:46.718Z,29.70
2019-06-07T12:27:14.715Z,31.30
2019-06-07T12:29:40.692Z,29.50
2019-06-07T12:32:07.649Z,29.60
2019-06-07T12:34:34.605Z,29.70
2019-06-07T12:37:01.651Z,29.60
2019-06-07T12:39:28.586Z,29.70
2019-06-07T12:41:55.552Z,29.70
2019-06-07T12:44:22.855Z,29.80
2019-06-07T12:46:49.459Z,29.90
2019-06-07T12:49:17.029Z,29.90
2019-06-07T12:51:43.456Z,29.60
2019-06-07T12:54:10.435Z,29.70
2019-06-07T12:56:38.070Z,29.60
2019-06-07T12:59:05.023Z,29.90
2019-06-07T13:01:31.980Z,29.90
2019-06-07T13:03:58.957Z,30.00
2019-06-07T13:06:26.025Z,29.20
2019-06-07T13:08:53.044Z,30.00
2019-06-07T13:11:25.248Z,29.90
2019-06-07T13:13:48.092Z,29.90
2019-06-07T13:16:16.316Z,29.80
2019-06-07T13:18:41.973Z,29.70
2019-06-07T13:21:08.945Z,29.60
2019-06-07T13:23:35.937Z,29.60
2019-06-07T13:26:02.913Z,29.70
2019-06-07T13:30:57.016Z,29.50
2019-06-07T13:33:25.645Z,29.60
2019-06-07T13:35:50.956Z,29.70
2019-06-07T13:38:24.345Z,29.70
2019-06-07T13:40:50.560Z,29.50
2019-06-07T13:43:17.530Z,29.60
2019-06-07T13:45:44.470Z,29.60
2019-06-07T13:48:11.538Z,29.60
2019-06-07T13:53:05.560Z,29.60
2019-06-07T13:55:32.515Z,29.70
2019-06-07T13:57:59.847Z,29.60
2019-06-07T14:00:26.854Z,29.60
2019-06-07T14:02:53.853Z,29.60
2019-06-07T14:05:21.041Z,29.80
2019-06-07T14:07:47.823Z,29.80
2019-06-07T14:10:14.809Z,29.60
2019-06-07T14:12:41.789Z,29.60
2019-06-07T14:15:08.761Z,29.60
2019-06-07T14:17:35.691Z,29.60
2019-06-07T14:20:03.377Z,29.40
2019-06-07T14:22:31.206Z,29.50
2019-06-07T14:24:57.135Z,29.50
2019-06-07T14:27:25.428Z,29.50
2019-06-07T14:29:51.161Z,29.50
2019-06-07T14:32:18.103Z,29.40
2019-06-07T14:34:45.112Z,29.40
2019-06-07T14:37:12.033Z,29.50
2019-06-07T14:39:38.980Z,29.50
2019-06-07T14:42:09.716Z,29.50
2019-06-07T14:44:33.882Z,29.50
2019-06-07T14:46:59.898Z,29.40
2019-06-07T14:49:28.124Z,29.50
2019-06-07T14:51:53.839Z,29.50
2019-06-07T14:54:20.795Z,29.60
2019-06-07T14:56:47.775Z,29.60
2019-06-07T14:59:17.198Z,29.60
2019-06-07T15:01:44.151Z,29.70
2019-06-07T15:04:11.132Z,29.70
2019-06-07T15:06:38.943Z,29.70
2019-06-07T15:09:05.579Z,29.70
2019-06-07T15:11:33.152Z,29.60
2019-06-07T15:13:59.582Z,29.50
2019-06-07T15:16:27.414Z,29.50
2019-06-07T15:18:53.473Z,29.60
2019-06-07T15:21:20.450Z,29.60
2019-06-07T15:23:47.416Z,29.60
2019-06-07T15:26:14.373Z,29.50
2019-06-07T15:28:41.471Z,29.50
2019-06-07T15:31:08.359Z,29.40
2019-06-07T15:33:36.533Z,29.40
2019-06-07T15:36:02.377Z,29.40
2019-06-07T15:38:30.940Z,29.30
2019-06-07T15:40:56.356Z,29.20
2019-06-07T15:43:23.289Z,29.20
2019-06-07T15:45:50.263Z,29.10
2019-06-07T15:48:17.257Z,29.20
2019-06-07T15:50:44.198Z,29.10
2019-06-07T15:53:11.196Z,29.10
2019-06-07T15:55:43.846Z,29.10
2019-06-07T15:58:05.195Z,29.20
2019-06-07T16:00:33.343Z,29.20
2019-06-07T16:02:59.578Z,29.20
2019-06-07T16:05:26.516Z,29.10
2019-06-07T16:07:53.499Z,29.20
2019-06-07T16:10:20.466Z,29.20
2019-06-07T16:12:59.660Z,29.30
2019-06-07T16:15:14.405Z,29.30
2019-06-07T16:17:42.072Z,29.30
2019-06-07T16:20:08.543Z,29.30
2019-06-07T16:22:35.798Z,29.20
2019-06-07T16:25:02.623Z,29.30
2019-06-07T16:27:29.884Z,29.30
2019-06-07T16:29:56.848Z,29.30
2019-06-07T16:32:23.833Z,29.20
2019-06-07T16:34:51.699Z,29.20
2019-06-07T16:37:18.666Z,29.00
2019-06-07T16:39:45.640Z,29.00
2019-06-07T16:42:12.616Z,29.00
2019-06-07T16:44:40.615Z,29.00
2019-06-07T16:47:06.623Z,29.10
2019-06-07T16:49:33.556Z,28.90
2019-06-07T16:52:00.508Z,28.50
2019-06-07T16:54:27.480Z,28.10
2019-06-07T16:56:54.513Z,26.70
2019-06-07T16:59:21.513Z,26.40
2019-06-07T17:01:49.841Z,26.30
2019-06-07T17:04:16.755Z,25.80
2019-06-07T17:06:43.778Z,25.60
2019-06-07T17:09:10.667Z,25.70
2019-06-07T17:11:38.213Z,25.50
2019-06-07T17:23:53.404Z,24.10
2019-06-07T17:36:10.679Z,23.40
2019-06-07T17:38:37.696Z,23.10
2019-06-07T17:43:31.655Z,22.60
2019-06-07T17:45:58.595Z,22.60
2019-06-07T17:50:52.887Z,22.10
2019-06-07T17:53:19.619Z,21.60
2019-06-07T18:10:33.910Z,20.40
2019-06-07T19:04:42.750Z,17.70
2019-06-07T19:07:09.808Z,17.80
2019-06-07T19:09:36.858Z,18.00
2019-06-07T19:24:19.056Z,17.90
2019-06-07T19:26:46.008Z,17.90
2019-06-07T19:36:48.012Z,17.60
2019-06-07T19:41:28.754Z,17.60
2019-06-07T19:48:50.077Z,17.60
2019-06-07T19:51:20.235Z,17.70
2019-06-07T19:56:11.113Z,17.70
2019-06-07T19:58:38.063Z,17.80
2019-06-07T20:03:32.037Z,18.00
2019-06-07T20:06:02.399Z,18.10
2019-06-07T20:08:28.291Z,18.20
2019-06-07T20:10:56.438Z,17.90
2019-06-07T20:13:22.350Z,18.00
2019-06-07T20:15:49.311Z,17.80
2019-06-07T20:18:16.291Z,17.80
2019-06-07T20:20:43.449Z,17.80
2019-06-07T20:23:10.396Z,17.70
2019-06-07T20:25:37.354Z,17.70
2019-06-07T20:28:05.576Z,17.70
2019-06-07T20:30:31.256Z,17.70
2019-06-07T20:32:59.681Z,17.60
2019-06-07T20:35:25.157Z,17.30
2019-06-07T20:37:52.231Z,17.40
2019-06-07T20:40:24.096Z,17.50
2019-06-07T20:42:46.163Z,17.80
2019-06-07T20:45:13.095Z,17.90
2019-06-07T20:47:40.012Z,18.10
2019-06-07T20:50:08.474Z,18.10
2019-06-07T20:52:34.081Z,18.10
2019-06-07T20:55:01.026Z,18.20
2019-06-07T20:57:27.972Z,18.00
2019-06-07T20:59:54.923Z,17.90
2019-06-07T21:02:21.866Z,18.10
2019-06-07T21:04:48.823Z,18.30
2019-06-07T21:07:16.937Z,18.20
2019-06-07T21:09:43.880Z,18.20
2019-06-07T21:12:10.852Z,18.20
2019-06-07T21:14:37.844Z,18.10
2019-06-07T21:17:06.114Z,18.10
2019-06-07T21:19:31.837Z,18.10
2019-06-07T21:21:58.733Z,18.00
2019-06-07T21:24:25.669Z,18.00
2019-06-07T21:26:53.507Z,17.80
2019-06-07T21:29:19.579Z,17.90
2019-06-07T21:31:46.515Z,17.90
2019-06-07T21:34:14.237Z,17.90
2019-06-07T21:36:40.978Z,17.80
2019-06-07T21:39:08.348Z,17.80
2019-06-07T21:41:34.889Z,17.80
2019-06-07T21:44:02.416Z,18.00
2019-06-07T21:53:49.991Z,17.50
2019-06-07T21:56:16.945Z,17.50
2019-06-07T21:58:43.915Z,17.30
2019-06-07T22:01:17.368Z,17.20
2019-06-07T22:03:44.331Z,17.00
2019-06-07T22:08:38.932Z,16.80
2019-06-07T22:11:06.130Z,16.70
2019-06-07T22:13:32.823Z,16.60
2019-06-07T22:23:20.927Z,16.40
2019-06-07T22:28:14.911Z,16.30
2019-06-07T22:30:41.840Z,16.40
2019-06-07T22:40:29.863Z,16.30
2019-06-07T23:12:36.165Z,16.00
2019-06-07T23:15:03.215Z,16.00
2019-06-07T23:17:30.163Z,16.00
2019-06-07T23:22:24.180Z,15.90
2019-06-07T23:24:51.124Z,15.90
2019-06-07T23:27:18.434Z,15.90
2019-06-07T23:29:45.082Z,15.90
2019-06-07T23:34:39.025Z,15.90
2019-06-07T23:37:06.032Z,15.90
2019-06-07T23:44:27.055Z,15.80
2019-06-07T23:49:22.434Z,15.80
2019-06-07T23:56:42.070Z,15.20
2019-06-07T23:59:09.022Z,15.80
